CST,Max TemperatureF,Mean TemperatureF,Min TemperatureF,Max Dew PointF,MeanDew PointF,Min DewpointF,Max Humidity, Mean Humidity, Min Humidity, Max Sea Level PressureIn, Mean Sea Level PressureIn, Min Sea Level PressureIn, Max VisibilityMiles, Mean VisibilityMiles, Min VisibilityMiles, Max Wind SpeedMPH, Mean Wind SpeedMPH, Max Gust SpeedMPH,PrecipitationIn, CloudCover, Events, WindDirDegrees
2012-12-1,72,61,50,58,54,48,95,81,55,30.32,30.27,30.23,10,10,10,9,2,,0.00,1,,82
2012-12-2,72,62,52,62,57,51,100,89,66,30.35,30.29,30.24,10,7,0,8,4,,0.00,4,Fog,64
2012-12-3,73,63,53,64,58,52,100,91,71,30.32,30.25,30.21,10,7,1,9,3,,0.00,2,,63
2012-12-4,75,65,55,66,61,55,100,91,69,30.31,30.24,30.20,10,7,0,12,2,,0.00,4,Fog,106
2012-12-5,74,64,54,63,58,53,100,87,56,30.22,30.14,30.07,10,8,1,9,2,,0.00,5,,69
2012-12-6,74,63,52,62,57,50,97,81,54,30.07,30.03,29.98,10,10,10,10,3,,0.00,2,,67
2012-12-7,66,62,59,61,60,58,95,87,80,30.06,30.00,29.95,10,9,2,13,6,,0.00,7,,83
2012-12-8,74,66,59,66,62,58,95,89,71,30.04,30.00,29.96,10,9,6,9,5,,0.00,6,Fog-Rain,95
2012-12-9,74,66,58,68,63,57,100,92,69,30.09,30.03,29.94,10,5,0,10,4,,0.00,6,Fog,105
2012-12-10,77,68,59,69,65,56,94,85,74,29.96,29.86,29.78,10,10,10,20,11,24,0.00,5,,228
2012-12-11,57,50,43,54,43,37,93,79,70,30.14,30.03,29.89,10,10,5,16,12,18,0.11,8,Rain,1
2012-12-12,52,44,37,43,40,35,93,88,67,30.23,30.15,30.06,10,10,6,15,9,,0.04,6,Rain,353
2012-12-13,59,48,37,45,41,35,95,82,56,30.33,30.28,30.23,10,9,6,15,9,,0.00,2,,22
2012-12-14,50,44,38,46,44,38,100,92,80,30.35,30.27,30.18,10,7,2,12,7,,0.00,7,,48
2012-12-15,66,56,46,61,54,46,96,86,68,30.18,30.11,30.04,10,10,7,10,5,,0.00,6,,88
2012-12-16,72,66,60,67,64,58,100,92,79,30.03,29.95,29.87,10,8,1,14,7,20,0.22,7,Rain,136
2012-12-17,71,65,59,68,62,58,94,91,83,29.89,29.83,29.74,10,9,1,29,9,37,0.64,6,Rain-Thunderstorm,225
2012-12-18,67,56,43,57,48,41,97,77,40,30.06,30.00,29.87,10,10,4,10,6,,0.00,0,,316
2012-12-19,70,55,40,62,53,39,95,79,50,30.11,30.05,30.00,10,10,10,13,4,,0.00,2,,129
2012-12-20,73,60,46,70,57,28,94,76,34,30.17,29.92,29.79,10,9,2,23,14,33,0.10,6,Rain,207
2012-12-21,55,44,34,26,20,11,65,41,17,30.34,30.26,30.19,10,10,10,18,12,25,0.00,0,,308
2012-12-22,61,44,28,31,23,17,80,50,19,30.41,30.32,30.27,10,10,10,14,6,,0.00,1,,334
2012-12-23,55,44,34,45,36,28,86,69,44,30.28,30.19,30.08,10,10,10,5,3,,0.00,7,,45
2012-12-24,68,62,55,64,62,47,100,91,73,30.04,29.94,29.89,10,6,0,18,8,26,0.30,7,Fog-Rain,224
2012-12-25,72,64,56,68,64,54,100,92,82,29.92,29.78,29.61,10,6,0,29,9,47,0.36,7,Fog-Rain-Thunderstorm,156
2012-12-26,58,48,35,53,37,31,86,67,49,30.14,29.93,29.70,10,10,10,28,10,33,0.00,5,,302
2012-12-27,48,40,33,40,34,30,93,77,62,30.20,30.13,30.08,10,10,10,13,6,,0.00,4,,322
2012-12-28,68,51,34,66,51,33,100,85,72,30.12,29.91,29.75,10,9,2,20,6,25,0.80,8,Rain,99
2012-12-29,64,50,35,63,42,28,94,75,54,30.36,30.05,29.77,10,10,10,20,9,25,0.01,6,,327
2012-12-30,54,41,28,31,27,24,84,63,31,30.49,30.40,30.34,10,10,10,12,6,,0.00,3,,2
2012-12-31,62,48,35,54,45,29,94,77,67,30.36,30.27,30.13,10,9,5,9,4,,0.00,6,,51